Time;durP1;ratioP1;P1;durP2;ratioP2;P2;SDS_P1;SDS_P2;PMS_P1;PMS_P2;Temp;Humidity;BMP_temperature;BMP_pressure;BME280_temperature;BME280_humidity;BME280_pressure;Samples;Min_cycle;Max_cycle;Signal;HPM_P1;HPM_P2
2023/07/13 00:01:31;;;;;;;6.15;1.70;;;;;;;17.24;96.59;101317.97;4909798;29;20064;-67
2023/07/13 00:03:59;;;;;;;6.43;1.98;;;;;;;17.18;96.98;101314.19;4919101;29;20667;-67
2023/07/13 00:06:32;;;;;;;9.93;2.00;;;;;;;17.14;99.11;101312.91;4919617;29;20059;-67
2023/07/13 00:08:59;;;;;;;7.45;1.90;;;;;;;17.10;99.17;101315.06;4919954;29;20059;-67
2023/07/13 00:11:26;;;;;;;6.93;1.92;;;;;;;17.10;99.19;101314.25;4928247;29;20047;-66
2023/07/13 00:13:53;;;;;;;8.68;1.95;;;;;;;17.02;99.75;101316.97;4916481;29;20054;-68
2023/07/13 00:16:19;;;;;;;4.13;1.40;;;;;;;16.92;100.00;101318.03;4915713;29;20055;-67
2023/07/13 00:18:46;;;;;;;6.60;1.67;;;;;;;16.91;100.00;101320.84;4919859;28;20120;-67
2023/07/13 00:21:14;;;;;;;5.47;1.38;;;;;;;16.79;100.00;101321.22;4925516;29;20047;-67
2023/07/13 00:23:42;;;;;;;4.28;1.55;;;;;;;16.85;100.00;101322.38;4921595;28;20053;-67
2023/07/13 00:26:10;;;;;;;6.32;1.83;;;;;;;16.82;100.00;101324.53;4922507;29;20155;-67
2023/07/13 00:28:39;;;;;;;5.25;1.52;;;;;;;16.83;100.00;101323.56;4919967;29;20588;-68
2023/07/13 00:31:08;;;;;;;;;;;;;;;16.87;100.00;101323.00;4925730;29;20423;-67
2023/07/13 00:33:35;;;;;;;7.55;1.73;;;;;;;16.83;100.00;101319.06;4929259;29;19976;-67
2023/07/13 00:36:03;;;;;;;7.85;1.80;;;;;;;16.82;100.00;101324.53;4921576;29;20056;-62
2023/07/13 00:38:29;;;;;;;6.50;1.60;;;;;;;16.80;100.00;101320.22;4929265;29;20067;-62
2023/07/13 00:40:56;;;;;;;7.28;1.85;;;;;;;16.84;100.00;101323.38;4914422;29;20106;-63
2023/07/13 00:43:26;;;;;;;8.68;2.00;;;;;;;16.74;100.00;101328.03;4923343;29;20052;-62
2023/07/13 00:45:58;;;;;;;6.50;2.08;;;;;;;16.73;100.00;101337.00;4919117;29;20103;-63
2023/07/13 00:48:29;;;;;;;6.45;1.65;;;;;;;16.68;100.00;101337.53;4919151;29;20059;-62
2023/07/13 00:50:59;;;;;;;10.45;1.55;;;;;;;16.70;100.00;101322.28;4922006;29;20056;-65
2023/07/13 00:53:29;;;;;;;6.97;1.40;;;;;;;16.71;100.00;101321.25;4919119;29;20048;-64
2023/07/13 00:55:56;;;;;;;5.25;1.77;;;;;;;16.71;100.00;101321.25;4919059;29;20055;-63
2023/07/13 00:58:27;;;;;;;4.22;1.38;;;;;;;16.68;100.00;101318.97;4916526;29;20056;-63
2023/07/13 01:00:54;;;;;;;6.03;1.90;;;;;;;16.58;100.00;101321.84;4926280;29;20475;-65
2023/07/13 01:03:20;;;;;;;8.63;1.80;;;;;;;16.60;100.00;101322.50;4922703;28;20067;-64
2023/07/13 01:05:49;;;;;;;3.25;1.52;;;;;;;16.60;100.00;101326.94;4928916;29;20427;-63
2023/07/13 01:08:16;;;;;;;7.22;1.40;;;;;;;16.54;100.00;101335.59;4927316;29;20107;-63
2023/07/13 01:10:54;;;;;;;7.85;2.00;;;;;;;16.52;100.00;101327.00;4913056;29;20143;-63
2023/07/13 01:13:21;;;;;;;7.93;1.70;;;;;;;16.50;100.00;101332.44;4926968;29;20102;-63
2023/07/13 01:15:50;;;;;;;7.32;1.80;;;;;;;16.44;100.00;101325.19;4918846;28;20097;-64
2023/07/13 01:18:24;;;;;;;4.43;1.67;;;;;;;16.43;100.00;101328.06;4926114;29;20075;-63
2023/07/13 01:20:52;;;;;;;8.10;1.60;;;;;;;16.43;100.00;101330.69;4921095;29;20114;-62
2023/07/13 01:23:19;;;;;;;7.60;1.50;;;;;;;16.38;100.00;101328.53;4919447;29;20626;-64
2023/07/13 01:25:45;;;;;;;4.88;1.40;;;;;;;16.37;100.00;101330.38;4921631;29;20136;-64
2023/07/13 01:28:12;;;;;;;7.78;1.58;;;;;;;16.30;100.00;101329.41;4928264;29;20106;-64
2023/07/13 01:30:39;;;;;;;5.32;1.83;;;;;;;16.27;100.00;101337.72;4910410;29;20572;-64
2023/07/13 01:33:07;;;;;;;11.27;1.90;;;;;;;16.26;100.00;101336.03;4923591;29;20047;-63
2023/07/13 01:35:34;;;;;;;5.40;1.65;;;;;;;16.23;100.00;101331.09;4927031;29;20190;-63
2023/07/13 01:38:01;;;;;;;5.05;1.58;;;;;;;16.15;100.00;101331.09;4915250;29;20524;-63
2023/07/13 01:40:29;;;;;;;5.72;1.98;;;;;;;16.13;100.00;101336.59;4930677;29;20118;-63
2023/07/13 01:42:58;;;;;;;8.27;2.10;;;;;;;16.09;100.00;101339.72;4925302;29;20056;-62
2023/07/13 01:45:24;;;;;;;10.05;2.05;;;;;;;16.09;100.00;101335.28;4924771;29;20406;-63
2023/07/13 01:47:51;;;;;;;5.40;2.00;;;;;;;16.05;100.00;101326.00;4926260;29;20481;-62
2023/07/13 01:50:17;;;;;;;7.85;2.38;;;;;;;15.98;100.00;101325.88;4921748;28;20099;-63
2023/07/13 01:52:44;;;;;;;10.02;2.53;;;;;;;15.94;100.00;101327.22;4926921;29;20158;-63
2023/07/13 01:55:10;;;;;;;7.05;2.05;;;;;;;15.92;100.00;101325.75;4906210;28;20120;-63
2023/07/13 01:57:37;;;;;;;9.82;2.30;;;;;;;15.83;100.00;101324.91;4931496;29;20052;-62
2023/07/13 02:00:05;;;;;;;6.55;2.30;;;;;;;15.82;100.00;101326.75;4922425;29;20079;-62
2023/07/13 02:02:32;;;;;;;8.70;2.28;;;;;;;15.82;100.00;101326.75;4908993;29;20051;-62
2023/07/13 02:04:58;;;;;;;9.30;1.98;;;;;;;15.86;100.00;101318.44;4923333;29;20099;-62
2023/07/13 02:07:25;;;;;;;7.95;2.10;;;;;;;15.83;100.00;101319.63;4920637;29;20048;-62
2023/07/13 02:09:51;;;;;;;10.13;2.53;;;;;;;15.80;100.00;101323.44;4913284;29;20144;-63
2023/07/13 02:12:18;;;;;;;11.20;2.60;;;;;;;15.81;100.00;101335.66;4924821;29;20052;-62
2023/07/13 02:14:45;;;;;;;17.38;2.80;;;;;;;15.77;100.00;101329.06;4930011;29;20087;-62
2023/07/13 02:17:12;;;;;;;6.90;2.20;;;;;;;15.80;100.00;101334.03;4923848;29;20160;-63
2023/07/13 02:19:38;;;;;;;6.28;2.42;;;;;;;15.74;100.00;101337.34;4923726;29;20341;-64
2023/07/13 02:22:04;;;;;;;8.30;2.38;;;;;;;15.73;100.00;101334.84;4928757;29;20118;-63
2023/07/13 02:24:31;;;;;;;8.52;2.25;;;;;;;15.66;100.00;101336.47;4924793;29;20492;-63
2023/07/13 02:26:57;;;;;;;7.72;2.38;;;;;;;15.66;100.00;101339.97;4929194;29;20695;-63
2023/07/13 02:29:24;;;;;;;11.10;2.45;;;;;;;15.62;100.00;101338.63;4925035;29;20771;-62
2023/07/13 02:31:50;;;;;;;11.48;3.05;;;;;;;15.66;100.00;101341.78;4912437;29;20130;-63
2023/07/13 02:34:17;;;;;;;9.45;2.78;;;;;;;15.63;100.00;101337.66;4918144;29;20056;-63
2023/07/13 02:36:44;;;;;;;9.77;2.38;;;;;;;15.56;100.00;101342.78;4928130;29;20087;-63
2023/07/13 02:39:11;;;;;;;6.68;2.40;;;;;;;15.61;100.00;101342.28;4928811;29;20106;-62
2023/07/13 02:41:38;;;;;;;8.32;2.47;;;;;;;15.57;100.00;101339.13;4925374;29;20540;-63
2023/07/13 02:44:05;;;;;;;9.70;2.45;;;;;;;15.58;100.00;101342.59;4930059;29;20540;-62
2023/07/13 02:46:36;;;;;;;6.28;2.53;;;;;;;15.57;100.00;101336.50;4918422;29;20110;-62
2023/07/13 02:49:03;;;;;;;9.10;2.80;;;;;;;15.66;100.00;101339.13;4926213;29;20039;-62
2023/07/13 02:51:33;;;;;;;7.38;2.67;;;;;;;15.60;100.00;101338.81;4891162;29;20604;-62
2023/07/13 02:54:00;;;;;;;7.45;2.50;;;;;;;15.60;100.00;101341.47;4925778;29;20066;-63
2023/07/13 02:56:28;;;;;;;11.00;2.78;;;;;;;15.61;100.00;101345.75;4927382;29;20103;-62
2023/07/13 02:58:55;;;;;;;16.83;3.60;;;;;;;15.54;100.00;101341.28;4921954;29;20134;-62
2023/07/13 03:01:22;;;;;;;8.48;2.42;;;;;;;15.52;100.00;101351.19;4929976;29;20580;-63
2023/07/13 03:03:50;;;;;;;12.07;3.37;;;;;;;15.47;100.00;101353.53;4924150;29;20051;-63
2023/07/13 03:06:18;;;;;;;8.65;2.42;;;;;;;15.43;100.00;101351.22;4921152;29;20073;-65
2023/07/13 03:08:44;;;;;;;7.40;2.88;;;;;;;15.46;100.00;101357.16;4919161;29;20044;-62
2023/07/13 03:11:14;;;;;;;9.25;2.63;;;;;;;15.44;100.00;101362.59;4931157;29;20039;-63
2023/07/13 03:13:42;;;;;;;9.45;2.80;;;;;;;15.43;100.00;101361.78;4924211;29;20051;-63
2023/07/13 03:16:10;;;;;;;13.33;3.03;;;;;;;15.43;100.00;101358.31;4920779;29;20051;-65
2023/07/13 03:18:38;;;;;;;11.40;3.17;;;;;;;15.37;100.00;101359.81;4930643;29;20527;-64
2023/07/13 03:21:05;;;;;;;9.43;3.20;;;;;;;15.31;100.00;101368.41;4923084;29;20103;-63
2023/07/13 03:23:32;;;;;;;12.27;3.33;;;;;;;15.27;100.00;101368.88;4920478;29;20488;-64
2023/07/13 03:26:07;;;;;;;8.10;2.50;;;;;;;15.28;100.00;101374.00;4922044;29;20301;-63
2023/07/13 03:28:35;;;;;;;10.35;3.08;;;;;;;15.20;100.00;101366.88;4926276;29;20051;-62
2023/07/13 03:31:04;;;;;;;11.45;3.13;;;;;;;15.20;100.00;101368.72;4906179;29;20660;-65
2023/07/13 03:33:31;;;;;;;13.63;3.53;;;;;;;15.18;100.00;101366.22;4927678;29;20504;-63
2023/07/13 03:35:58;;;;;;;12.00;3.10;;;;;;;15.18;100.00;101362.75;4927567;29;20483;-63
2023/07/13 03:38:26;;;;;;;8.45;2.90;;;;;;;15.22;100.00;101370.19;4923682;29;20083;-62
2023/07/13 03:40:53;;;;;;;8.75;3.08;;;;;;;15.14;100.00;101367.53;4926189;29;20098;-62
2023/07/13 03:43:20;;;;;;;8.40;3.10;;;;;;;15.18;100.00;101360.94;4925391;29;20081;-63
2023/07/13 03:45:47;;;;;;;9.93;3.10;;;;;;;15.16;100.00;101372.66;4927292;29;20055;-63
2023/07/13 03:48:14;;;;;;;11.18;3.00;;;;;;;15.20;100.00;101376.63;4923918;28;20059;-62
2023/07/13 03:50:41;;;;;;;9.10;3.42;;;;;;;15.15;100.00;101379.78;4927115;29;20071;-63
2023/07/13 03:53:07;;;;;;;10.15;3.10;;;;;;;15.15;100.00;101381.56;4925247;29;20094;-63
2023/07/13 03:55:34;;;;;;;15.80;3.90;;;;;;;15.18;100.00;101386.53;4918462;29;20061;-63
2023/07/13 03:58:31;;;;;;;13.05;3.42;;;;;;;15.18;100.00;101386.53;4929284;29;20055;-62
2023/07/13 04:00:59;;;;;;;12.25;3.50;;;;;;;15.15;100.00;101386.84;4921794;29;20055;-62
2023/07/13 04:03:27;;;;;;;7.57;2.72;;;;;;;15.21;100.00;101389.69;4924803;29;20071;-62
2023/07/13 04:05:59;;;;;;;16.42;4.00;;;;;;;15.23;100.00;101382.44;4919607;29;20062;-63
2023/07/13 04:08:32;;;;;;;12.88;3.50;;;;;;;15.30;100.00;101387.06;4921802;29;20527;-62
2023/07/13 04:11:00;;;;;;;9.15;3.58;;;;;;;15.28;100.00;101395.13;4923594;29;20059;-62
2023/07/13 04:13:27;;;;;;;9.80;3.38;;;;;;;15.24;100.00;101388.53;4928111;29;20075;-62
2023/07/13 04:15:54;;;;;;;9.60;3.15;;;;;;;15.31;100.00;101392.19;4926899;29;20062;-62
2023/07/13 04:18:21;;;;;;;18.85;4.88;;;;;;;15.25;100.00;101392.84;4921477;29;20056;-63
2023/07/13 04:20:49;;;;;;;10.32;4.35;;;;;;;15.25;100.00;101394.63;4924752;29;20090;-64
2023/07/13 04:23:19;;;;;;;9.60;4.20;;;;;;;15.30;100.00;101398.44;4915895;29;20426;-62
2023/07/13 04:25:49;;;;;;;15.05;3.70;;;;;;;15.33;100.00;101397.31;4928589;29;20501;-64
2023/07/13 04:28:17;;;;;;;12.20;3.65;;;;;;;15.33;100.00;101402.59;4923168;29;20134;-64
2023/07/13 04:30:44;;;;;;;12.93;4.15;;;;;;;15.39;100.00;101400.13;4926281;29;20058;-63
2023/07/13 04:33:11;;;;;;;13.57;4.57;;;;;;;15.35;100.00;101397.97;4910511;29;20094;-63
2023/07/13 04:35:37;;;;;;;9.20;3.47;;;;;;;15.35;100.00;101397.97;4915746;28;20043;-62
2023/07/13 04:38:04;;;;;;;14.38;4.43;;;;;;;15.33;100.00;101402.59;4929127;29;20413;-64
2023/07/13 04:40:31;;;;;;;17.33;4.35;;;;;;;15.33;100.00;101400.78;4918261;28;20055;-63
2023/07/13 04:42:57;;;;;;;13.23;3.85;;;;;;;15.31;100.00;101407.19;4927530;29;20138;-61
2023/07/13 04:45:24;;;;;;;11.32;4.50;;;;;;;15.33;100.00;101403.41;4921122;29;20055;-64
2023/07/13 04:47:50;;;;;;;13.02;3.70;;;;;;;15.33;100.00;101414.00;4924312;29;20098;-61
2023/07/13 04:50:20;;;;;;;10.43;3.65;;;;;;;15.36;100.00;101407.53;4924359;29;20493;-63
2023/07/13 04:52:47;;;;;;;19.95;4.68;;;;;;;15.33;100.00;101413.16;4896479;29;20048;-62
2023/07/13 04:55:14;;;;;;;13.40;5.05;;;;;;;15.34;100.00;101412.16;4908930;29;20519;-63
2023/07/13 04:57:40;;;;;;;15.43;4.47;;;;;;;15.29;100.00;101412.66;4920454;29;20063;-63
2023/07/13 05:00:08;;;;;;;14.77;3.90;;;;;;;15.32;100.00;101414.97;4932131;29;20050;-63
2023/07/13 05:02:35;;;;;;;16.98;5.85;;;;;;;15.38;100.00;101418.78;4922310;28;20083;-63
2023/07/13 05:05:03;;;;;;;16.52;4.90;;;;;;;15.35;100.00;101425.22;4922702;29;20512;-61
2023/07/13 05:07:30;;;;;;;16.35;4.80;;;;;;;15.35;100.00;101421.75;4932776;29;20131;-63
2023/07/13 05:09:56;;;;;;;12.95;4.28;;;;;;;15.38;100.00;101421.41;4925549;29;20107;-63
2023/07/13 05:12:23;;;;;;;15.40;4.93;;;;;;;15.40;100.00;101422.91;4932678;29;20079;-63
2023/07/13 05:14:49;;;;;;;16.42;5.20;;;;;;;15.46;100.00;101426.72;4925905;28;20083;-63
2023/07/13 05:17:16;;;;;;;16.38;5.07;;;;;;;15.43;100.00;101433.16;4926038;29;20052;-65
2023/07/13 05:19:43;;;;;;;14.85;5.15;;;;;;;15.41;100.00;101436.97;4923925;29;20489;-61
2023/07/13 05:22:09;;;;;;;13.43;4.80;;;;;;;15.46;100.00;101436.47;4933031;29;20060;-63
2023/07/13 05:24:36;;;;;;;20.45;5.63;;;;;;;15.55;100.00;101436.31;4931576;29;20389;-63
2023/07/13 05:27:03;;;;;;;13.75;5.00;;;;;;;15.61;100.00;101442.75;4924210;29;20130;-63
2023/07/13 05:29:29;;;;;;;18.48;6.18;;;;;;;15.66;100.00;101451.03;4927786;29;20135;-62
2023/07/13 05:31:56;;;;;;;14.02;5.50;;;;;;;15.68;100.00;101443.78;4919189;29;20134;-62
2023/07/13 05:34:23;;;;;;;16.30;5.93;;;;;;;15.69;100.00;101449.88;4929325;29;20241;-61
2023/07/13 05:36:49;;;;;;;14.40;5.93;;;;;;;15.66;100.00;101453.69;4923051;29;20056;-61
2023/07/13 05:39:16;;;;;;;20.50;6.03;;;;;;;15.77;100.00;101440.16;4930704;29;20059;-60
2023/07/13 05:41:43;;;;;;;14.57;5.65;;;;;;;15.73;100.00;101444.13;4928235;29;20718;-61
2023/07/13 05:44:09;;;;;;;18.83;6.50;;;;;;;15.70;100.00;101456.81;4917688;29;20118;-62
2023/07/13 05:46:36;;;;;;;16.15;5.93;;;;;;;15.80;100.00;101457.53;4927087;29;20160;-62
2023/07/13 05:49:03;;;;;;;20.33;6.55;;;;;;;15.80;100.00;101462.81;4922044;28;20054;-61
2023/07/13 05:51:29;;;;;;;19.88;6.07;;;;;;;15.94;100.00;101458.69;4930002;29;20512;-61
2023/07/13 05:53:56;;;;;;;24.40;7.47;;;;;;;15.96;100.00;101457.50;4925262;29;20138;-62
2023/07/13 05:56:22;;;;;;;25.90;7.35;;;;;;;15.97;100.00;101467.09;4930082;29;20082;-60
2023/07/13 05:58:49;;;;;;;23.45;6.68;;;;;;;16.02;100.00;101467.44;4925570;29;20066;-61
2023/07/13 06:01:16;;;;;;;20.92;7.93;;;;;;;15.92;100.00;101465.97;4917638;29;20501;-62
2023/07/13 06:03:43;;;;;;;20.95;7.22;;;;;;;16.07;100.00;101484.63;4931377;29;20134;-62
2023/07/13 06:06:10;;;;;;;22.92;8.05;;;;;;;16.10;100.00;101479.00;4925275;29;20059;-60
2023/07/13 06:08:37;;;;;;;24.35;8.35;;;;;;;16.17;100.00;101478.19;4929153;29;20643;-61
2023/07/13 06:11:12;;;;;;;20.60;8.45;;;;;;;16.23;100.00;101486.44;4920923;29;20048;-63
2023/07/13 06:13:39;;;;;;;20.30;8.70;;;;;;;16.22;100.00;101490.91;4923592;29;20043;-62
2023/07/13 06:16:06;;;;;;;24.23;9.10;;;;;;;16.32;100.00;101482.78;4930707;28;20051;-63
2023/07/13 06:18:34;;;;;;;22.15;8.80;;;;;;;16.29;100.00;101483.94;4928610;29;20047;-61
2023/07/13 06:21:05;;;;;;;28.52;10.60;;;;;;;16.30;100.00;101485.59;4914719;29;20056;-62
2023/07/13 06:23:32;;;;;;;24.85;9.77;;;;;;;16.32;100.00;101482.78;4925845;29;20047;-62
2023/07/13 06:25:59;;;;;;;21.50;9.82;;;;;;;16.42;100.00;101488.72;4925081;29;20134;-63
2023/07/13 06:28:25;;;;;;;27.92;11.18;;;;;;;16.49;100.00;101489.69;4920856;29;20134;-61
2023/07/13 06:30:51;;;;;;;23.33;10.52;;;;;;;16.51;100.00;101498.31;4930839;29;20079;-62
2023/07/13 06:33:18;;;;;;;26.73;9.85;;;;;;;16.55;100.00;101502.25;4926884;28;20047;-63
2023/07/13 06:35:44;;;;;;;23.33;10.52;;;;;;;16.69;100.00;101498.09;4911754;29;20111;-62
2023/07/13 06:38:11;;;;;;;23.90;10.70;;;;;;;16.79;100.00;101509.31;4928428;29;20051;-61
2023/07/13 06:40:37;;;;;;;22.27;10.20;;;;;;;16.94;100.00;101511.28;4920073;28;20615;-64
2023/07/13 06:43:04;;;;;;;28.42;10.30;;;;;;;17.00;100.00;101510.59;4928183;29;20404;-61
2023/07/13 06:45:35;;;;;;;22.90;11.02;;;;;;;17.10;100.00;101505.09;4915026;29;20043;-61
2023/07/13 06:48:01;;;;;;;23.92;11.10;;;;;;;17.22;100.00;101505.53;4930708;29;20055;-61
2023/07/13 06:50:28;;;;;;;23.10;10.82;;;;;;;17.26;100.00;101510.31;4917721;28;20051;-61
2023/07/13 06:52:54;;;;;;;19.90;9.43;;;;;;;17.36;100.00;101500.31;4923248;29;20058;-62
2023/07/13 06:55:20;;;;;;;23.52;10.25;;;;;;;17.54;100.00;101510.66;4912227;29;20169;-62
2023/07/13 06:57:47;;;;;;;26.10;11.05;;;;;;;17.66;100.00;101504.94;4915823;29;20051;-61
2023/07/13 07:00:14;;;;;;;25.00;11.18;;;;;;;17.74;100.00;101503.06;4925243;29;20055;-63
2023/07/13 07:02:40;;;;;;;24.70;12.02;;;;;;;17.79;100.00;101502.53;4920346;29;20442;-61
2023/07/13 07:05:07;;;;;;;25.77;10.50;;;;;;;17.90;100.00;101509.28;4926586;29;20052;-61
2023/07/13 07:07:34;;;;;;;23.10;10.93;;;;;;;17.89;100.00;101512.94;4921731;29;20079;-62
2023/07/13 07:10:00;;;;;;;25.58;10.63;;;;;;;17.94;100.00;101516.69;4919482;29;20102;-62
2023/07/13 07:12:28;;;;;;;21.35;10.38;;;;;;;18.00;100.00;101517.81;4927196;29;20082;-62
2023/07/13 07:14:55;;;;;;;;;;;;;;;17.93;100.00;101523.00;4923569;29;20513;-62
2023/07/13 07:17:21;;;;;;;28.20;11.45;;;;;;;17.96;100.00;101527.97;4931089;29;19927;-63
2023/07/13 07:19:50;;;;;;;24.13;10.23;;;;;;;18.09;100.00;101516.75;4924119;29;20052;-63
2023/07/13 07:22:17;;;;;;;24.27;11.25;;;;;;;18.09;100.00;101523.88;4922695;29;20103;-63
2023/07/13 07:24:43;;;;;;;25.40;11.15;;;;;;;18.10;100.00;101520.22;4914190;29;20047;-64
2023/07/13 07:27:10;;;;;;;23.02;10.88;;;;;;;18.16;100.00;101525.63;4926306;29;20048;-62
2023/07/13 07:29:39;;;;;;;28.25;11.80;;;;;;;18.08;100.00;101520.41;4918496;29;20056;-63
2023/07/13 07:32:13;;;;;;;19.92;11.45;;;;;;;18.10;100.00;101531.66;4922000;29;20560;-63
2023/07/13 07:34:59;;;;;;;24.05;10.30;;;;;;;18.25;100.00;101530.88;4911069;29;20280;-65
2023/07/13 07:37:26;;;;;;;25.38;11.43;;;;;;;18.25;100.00;101525.56;4913125;29;20052;-62
2023/07/13 07:40:12;;;;;;;20.30;9.52;;;;;;;18.41;100.00;101528.09;4927163;29;20500;-62
2023/07/13 07:42:42;;;;;;;19.80;11.07;;;;;;;18.64;100.00;101532.50;4918278;29;20472;-62
2023/07/13 07:45:11;;;;;;;21.13;10.23;;;;;;;18.72;100.00;101535.91;4921482;29;20062;-65
2023/07/13 07:47:38;;;;;;;19.48;10.40;;;;;;;18.84;100.00;101524.84;4925014;29;20110;-63
2023/07/13 07:50:05;;;;;;;22.30;12.05;;;;;;;18.70;100.00;101535.25;4908135;29;20448;-64
2023/07/13 07:52:32;;;;;;;29.08;11.20;;;;;;;18.85;100.00;101534.47;4913970;29;20043;-63
2023/07/13 07:54:58;;;;;;;23.83;11.05;;;;;;;18.83;100.00;101533.81;4922259;29;20441;-62
2023/07/13 07:57:27;;;;;;;19.33;10.68;;;;;;;19.03;100.00;101524.25;4925655;29;20047;-61
2023/07/13 07:59:57;;;;;;;22.65;10.48;;;;;;;19.08;100.00;101529.84;4921133;29;20221;-62
2023/07/13 08:02:26;;;;;;;21.65;10.77;;;;;;;19.10;100.00;101527.03;4923712;29;20075;-63
2023/07/13 08:04:55;;;;;;;22.73;11.07;;;;;;;18.95;100.00;101530.53;4913702;29;20516;-61
2023/07/13 08:07:25;;;;;;;21.15;12.25;;;;;;;18.95;100.00;101527.88;4927411;29;20055;-62
2023/07/13 08:09:53;;;;;;;23.23;10.70;;;;;;;19.11;100.00;101526.00;4928712;29;20548;-62
2023/07/13 08:12:19;;;;;;;21.17;10.70;;;;;;;19.29;100.00;101521.13;4919417;29;20051;-62
2023/07/13 08:15:10;;;;;;;19.92;10.25;;;;;;;19.41;100.00;101521.47;4925465;29;20055;-64
2023/07/13 08:17:36;;;;;;;20.65;11.10;;;;;;;19.17;100.00;101541.25;4919235;29;20071;-62
2023/07/13 08:20:04;;;;;;;23.67;10.50;;;;;;;19.34;100.00;101532.00;4929432;29;20570;-62
2023/07/13 08:22:30;;;;;;;23.67;11.13;;;;;;;19.38;100.00;101535.13;4921727;29;20083;-62
2023/07/13 08:24:59;;;;;;;20.02;10.93;;;;;;;19.37;100.00;101533.50;4931059;29;20052;-62
2023/07/13 08:27:26;;;;;;;;;;;;;;;19.56;100.00;101524.91;4916318;28;20043;-65
2023/07/13 08:29:53;;;;;;;22.60;10.97;;;;;;;19.50;100.00;101527.47;4922904;29;19927;-63
2023/07/13 08:32:21;;;;;;;22.98;9.73;;;;;;;19.65;100.00;101527.44;4928067;29;20107;-62
2023/07/13 08:34:48;;;;;;;16.05;9.90;;;;;;;19.82;100.00;101526.22;4922444;29;20075;-62
2023/07/13 08:37:16;;;;;;;23.05;9.85;;;;;;;19.97;100.00;101517.31;4928838;29;20062;-63
2023/07/13 08:39:43;;;;;;;23.02;10.05;;;;;;;19.79;100.00;101521.25;4923538;29;20576;-63
2023/07/13 08:42:34;;;;;;;15.80;8.82;;;;;;;20.10;100.00;101523.56;4925006;29;20059;-62
2023/07/13 08:45:13;;;;;;;17.90;10.10;;;;;;;20.28;100.00;101519.63;4912223;29;20052;-64
2023/07/13 08:47:54;;;;;;;18.00;10.10;;;;;;;20.54;99.29;101521.63;4927303;29;20087;-63
2023/07/13 08:50:27;;;;;;;22.13;10.10;;;;;;;20.63;97.49;101517.00;4921245;29;20131;-64
2023/07/13 08:52:55;;;;;;;19.35;8.15;;;;;;;21.03;93.80;101517.22;4928030;29;20481;-63
2023/07/13 08:55:25;;;;;;;;;;;;;;;21.20;89.63;101520.38;4924722;29;20515;-63
2023/07/13 08:57:59;;;;;;;18.38;8.88;;;;;;;20.96;91.07;101513.72;4916780;28;19962;-63
2023/07/13 09:00:37;;;;;;;16.23;9.20;;;;;;;20.40;91.46;101523.38;4922746;29;20091;-63
2023/07/13 09:03:12;;;;;;;17.60;9.52;;;;;;;20.17;97.32;101526.31;4911517;29;20044;-63
2023/07/13 09:05:41;;;;;;;13.88;8.93;;;;;;;19.93;95.61;101517.72;4929954;29;20055;-65
2023/07/13 09:08:23;;;;;;;15.30;8.63;;;;;;;20.06;95.58;101519.66;4920371;29;20487;-64
2023/07/13 09:10:58;;;;;;;18.50;8.27;;;;;;;20.50;91.65;101507.91;4921487;29;20060;-64
2023/07/13 09:13:45;;;;;;;13.70;7.95;;;;;;;20.68;89.17;101520.75;4914773;29;20561;-64
2023/07/13 09:16:12;;;;;;;13.75;7.97;;;;;;;20.59;87.20;101513.06;4927925;29;20043;-62
2023/07/13 09:18:59;;;;;;;12.68;7.68;;;;;;;20.59;91.05;101519.25;4919820;29;20486;-63
2023/07/13 09:21:33;;;;;;;14.60;6.75;;;;;;;20.66;83.89;101520.13;4926831;29;20144;-64
2023/07/13 09:24:17;;;;;;;15.75;7.43;;;;;;;20.77;81.85;101521.41;4918239;29;20058;-63
2023/07/13 09:26:44;;;;;;;14.52;7.47;;;;;;;20.76;82.44;101525.09;4921096;29;20656;-64
2023/07/13 09:29:22;;;;;;;13.52;6.18;;;;;;;20.81;82.73;101524.50;4927288;29;20075;-63
2023/07/13 09:31:55;;;;;;;13.75;6.68;;;;;;;20.79;81.50;101518.53;4920196;28;20059;-65
2023/07/13 09:34:23;;;;;;;14.13;5.88;;;;;;;20.69;81.54;101529.56;4925830;29;20128;-63
2023/07/13 09:36:49;;;;;;;19.05;7.25;;;;;;;20.56;81.68;101524.91;4917784;29;20051;-63
2023/07/13 09:39:29;;;;;;;10.05;5.82;;;;;;;20.51;90.76;101538.84;4911956;29;20063;-64
2023/07/13 09:42:15;;;;;;;13.68;5.82;;;;;;;19.99;93.11;101561.38;4918454;29;20073;-64
2023/07/13 09:44:55;;;;;;;13.40;6.38;;;;;;;19.85;100.00;101546.28;4928910;29;20079;-62
2023/07/13 09:47:30;;;;;;;13.15;6.80;;;;;;;19.77;100.00;101544.56;4908828;29;20051;-63
2023/07/13 09:50:01;;;;;;;12.73;8.02;;;;;;;19.45;100.00;101551.19;4926073;29;20062;-63
2023/07/13 09:52:46;;;;;;;12.82;8.50;;;;;;;19.40;100.00;101553.56;4908455;29;20059;-63
2023/07/13 09:55:31;;;;;;;16.02;8.60;;;;;;;19.38;100.00;101544.94;4927626;29;20460;-63
2023/07/13 09:58:05;;;;;;;15.15;8.73;;;;;;;19.35;100.00;101554.13;4921316;29;20052;-62
2023/07/13 10:00:32;;;;;;;11.63;6.35;;;;;;;19.41;100.00;101548.06;4924534;29;20059;-63
2023/07/13 10:03:05;;;;;;;13.63;7.13;;;;;;;19.51;100.00;101558.41;4928193;29;20044;-65
2023/07/13 10:05:45;;;;;;;10.45;5.90;;;;;;;19.77;100.00;101557.06;4921177;29;20049;-64
2023/07/13 10:08:30;;;;;;;13.35;7.30;;;;;;;19.92;100.00;101552.50;4913952;29;20052;-63
2023/07/13 10:10:59;;;;;;;15.75;8.40;;;;;;;20.02;100.00;101555.66;4919856;29;20067;-64
2023/07/13 10:13:40;;;;;;;13.23;7.57;;;;;;;20.09;100.00;101553.06;4925331;29;20056;-63
2023/07/13 10:16:07;;;;;;;13.85;7.97;;;;;;;20.13;100.00;101549.00;4920339;29;20067;-63
2023/07/13 10:18:47;;;;;;;19.27;7.63;;;;;;;20.51;100.00;101556.69;4932521;29;20051;-62
2023/07/13 10:21:21;;;;;;;15.13;8.07;;;;;;;20.90;100.00;101560.66;4922446;29;20075;-64
2023/07/13 10:24:14;;;;;;;14.70;6.93;;;;;;;21.53;100.00;101558.66;4927830;29;20055;-63
2023/07/13 10:26:48;;;;;;;12.50;6.60;;;;;;;21.75;95.23;101563.84;4927634;29;20059;-63
2023/07/13 10:29:16;;;;;;;18.50;6.88;;;;;;;22.02;91.45;101562.03;4919592;29;20386;-64
2023/07/13 10:31:45;;;;;;;14.77;6.00;;;;;;;21.62;82.69;101553.13;4925839;29;20134;-64
2023/07/13 10:34:13;;;;;;;12.38;5.80;;;;;;;21.42;83.12;101561.88;4918666;28;20666;-63
2023/07/13 10:36:45;;;;;;;11.32;5.28;;;;;;;21.37;85.19;101571.53;4926063;29;20437;-63
2023/07/13 10:39:20;;;;;;;10.32;5.85;;;;;;;21.34;87.14;101564.72;4917468;28;20307;-62
2023/07/13 10:41:53;;;;;;;10.57;5.30;;;;;;;21.48;83.55;101571.81;4930431;29;20147;-62
2023/07/13 10:44:30;;;;;;;11.25;5.93;;;;;;;21.42;85.51;101575.22;4913017;29;20486;-63
2023/07/13 10:47:06;;;;;;;12.82;6.40;;;;;;;21.25;93.30;101582.78;4924049;29;20062;-64
2023/07/13 10:49:35;;;;;;;15.38;6.38;;;;;;;20.73;100.00;101578.78;4917846;29;20056;-62
2023/07/13 10:52:02;;;;;;;12.88;6.07;;;;;;;20.19;100.00;101598.00;4925785;29;20063;-61
2023/07/13 10:54:29;;;;;;;15.05;6.53;;;;;;;19.92;100.00;101590.59;4930530;29;20572;-62
2023/07/13 10:57:17;;;;;;;13.52;6.57;;;;;;;19.99;100.00;101592.50;4922330;28;20091;-61
2023/07/13 11:00:02;;;;;;;10.40;5.93;;;;;;;20.36;100.00;101588.72;4927851;29;20047;-63
2023/07/13 11:02:29;;;;;;;11.50;5.88;;;;;;;20.55;100.00;101590.72;4923627;29;20053;-64
2023/07/13 11:04:59;;;;;;;10.43;5.15;;;;;;;20.82;100.00;101590.16;4925250;29;20505;-62
2023/07/13 11:07:29;;;;;;;12.40;5.03;;;;;;;20.82;100.00;101584.81;4921623;29;20083;-63
2023/07/13 11:09:59;;;;;;;15.65;5.30;;;;;;;21.02;100.00;101584.91;4917573;29;20059;-62
2023/07/13 11:12:45;;;;;;;11.43;5.15;;;;;;;21.21;100.00;101583.34;4912128;29;20107;-64
2023/07/13 11:15:12;;;;;;;9.48;4.20;;;;;;;21.23;100.00;101598.16;4930130;29;20107;-63
2023/07/13 11:17:58;;;;;;;9.82;4.30;;;;;;;20.80;100.00;101586.84;4928412;29;20134;-64
2023/07/13 11:20:42;;;;;;;10.18;4.75;;;;;;;20.94;100.00;101585.91;4920828;29;20078;-62
2023/07/13 11:23:11;;;;;;;14.43;4.35;;;;;;;21.11;100.00;101589.06;4925173;29;20082;-64